createdAt,value
2023-03-31T00:01:10.528Z,99158.45
2023-03-31T00:03:43.952Z,99160.41
2023-03-31T00:06:19.021Z,99157.45
2023-03-31T00:08:52.626Z,99152.54
2023-03-31T00:11:22.495Z,99156.89
2023-03-31T00:13:50.656Z,99155.71
2023-03-31T00:16:19.697Z,99154.73
2023-03-31T00:18:51.146Z,99153.83
2023-03-31T00:21:25.062Z,99152.33
2023-03-31T00:23:59.080Z,99153.94
2023-03-31T00:26:28.242Z,99152.94
2023-03-31T00:28:57.290Z,99156.45
2023-03-31T00:31:27.801Z,99162.42
2023-03-31T00:33:56.991Z,99164.19
2023-03-31T00:36:28.905Z,99162.53
2023-03-31T00:39:09.094Z,99164.14
2023-03-31T00:41:39.512Z,99168.09
2023-03-31T00:44:15.690Z,99168.56
2023-03-31T00:46:56.159Z,99167.80
2023-03-31T00:49:31.105Z,99163.61
2023-03-31T00:52:06.184Z,99164.57
2023-03-31T00:54:36.532Z,99157.66
2023-03-31T00:57:07.023Z,99155.35
2023-03-31T00:59:39.746Z,99148.55
2023-03-31T01:02:08.959Z,99149.42
2023-03-31T01:04:45.330Z,99148.73
2023-03-31T01:07:24.056Z,99152.16
2023-03-31T01:09:54.565Z,99152.80
2023-03-31T01:12:24.272Z,99151.03
2023-03-31T01:14:54.205Z,99148.77
2023-03-31T01:17:23.315Z,99148.81
2023-03-31T01:20:14.118Z,99145.48
2023-03-31T01:23:13.493Z,99142.48
2023-03-31T01:26:04.012Z,99138.39
2023-03-31T01:28:41.589Z,99138.64
2023-03-31T01:31:24.805Z,99137.05
2023-03-31T01:34:30.461Z,99136.41
2023-03-31T01:37:18.620Z,99136.06
2023-03-31T01:40:10.010Z,99135.44
2023-03-31T01:42:52.329Z,99140.74
2023-03-31T01:45:41.802Z,99145.42
2023-03-31T01:48:18.573Z,99146.64
2023-03-31T01:50:48.898Z,99149.48
2023-03-31T01:53:35.816Z,99150.86
2023-03-31T01:56:26.111Z,99154.35
2023-03-31T01:59:03.800Z,99157.72
2023-03-31T02:01:38.335Z,99156.00
2023-03-31T02:04:23.930Z,99155.11
2023-03-31T02:06:57.468Z,99155.92
2023-03-31T02:09:32.037Z,99152.44
2023-03-31T02:12:04.299Z,99154.52
2023-03-31T02:14:36.056Z,99152.81
2023-03-31T02:17:08.504Z,99153.75
2023-03-31T02:19:40.948Z,99148.69
2023-03-31T02:22:10.791Z,99149.84
2023-03-31T02:24:41.244Z,99146.75
2023-03-31T02:27:16.275Z,99145.45
2023-03-31T02:29:45.062Z,99142.71
2023-03-31T02:32:32.572Z,99142.59
2023-03-31T02:35:01.639Z,99140.98
2023-03-31T02:37:31.200Z,99138.54
2023-03-31T02:40:05.032Z,99137.77
2023-03-31T02:42:33.095Z,99140.15
2023-03-31T02:45:03.967Z,99138.38
2023-03-31T02:47:33.006Z,99137.74
2023-03-31T02:50:03.348Z,99137.40
2023-03-31T02:52:58.534Z,99143.61
2023-03-31T02:55:37.824Z,99144.35
2023-03-31T02:58:24.079Z,99144.19
2023-03-31T03:01:21.654Z,99146.13
2023-03-31T03:03:55.723Z,99145.90
2023-03-31T03:07:19.202Z,99149.77
2023-03-31T03:09:52.978Z,99152.95
2023-03-31T03:12:38.936Z,99159.89
2023-03-31T03:15:22.594Z,99167.70
2023-03-31T03:17:52.071Z,99163.39
2023-03-31T03:20:22.386Z,99168.41
2023-03-31T03:22:50.359Z,99168.39
2023-03-31T03:25:20.467Z,99177.77
2023-03-31T03:27:48.387Z,99176.90
2023-03-31T03:30:16.484Z,99180.48
2023-03-31T03:41:40.221Z,99183.96
2023-03-31T03:44:08.162Z,99188.16
2023-03-31T03:46:36.061Z,99186.00
2023-03-31T03:49:04.016Z,99189.20
2023-03-31T03:51:31.922Z,99186.42
2023-03-31T03:53:59.972Z,99185.89
2023-03-31T03:56:27.827Z,99185.34
2023-03-31T03:58:55.765Z,99185.63
2023-03-31T04:01:23.780Z,99183.58
2023-03-31T04:03:51.659Z,99185.11
2023-03-31T04:06:19.598Z,99186.96
2023-03-31T04:08:47.467Z,99187.52
2023-03-31T04:11:19.172Z,99185.63
2023-03-31T04:13:47.775Z,99189.58
2023-03-31T04:16:16.896Z,99189.02
2023-03-31T04:18:44.961Z,99192.73
2023-03-31T04:21:15.832Z,99192.19
2023-03-31T04:23:46.938Z,99194.60
2023-03-31T04:26:17.517Z,99191.96
2023-03-31T04:28:47.054Z,99193.39
2023-03-31T04:31:16.672Z,99193.10
2023-03-31T04:33:46.322Z,99193.23
2023-03-31T04:36:20.051Z,99190.33
2023-03-31T04:38:56.401Z,99185.12
2023-03-31T04:41:25.541Z,99181.77
2023-03-31T04:43:54.193Z,99178.32
2023-03-31T04:46:22.579Z,99180.30
2023-03-31T04:48:50.505Z,99175.83
2023-03-31T04:51:20.621Z,99177.10
2023-03-31T04:53:48.562Z,99176.66
2023-03-31T04:56:16.586Z,99173.66
2023-03-31T04:58:44.891Z,99166.80
2023-03-31T05:01:18.447Z,99164.13
2023-03-31T05:03:48.170Z,99163.64
2023-03-31T05:06:16.518Z,99172.14
2023-03-31T05:08:44.763Z,99174.10
2023-03-31T05:11:12.668Z,99169.34
2023-03-31T05:13:40.620Z,99169.33
2023-03-31T05:16:14.766Z,99168.38
2023-03-31T05:18:42.903Z,99169.48
2023-03-31T05:21:13.177Z,99171.02
2023-03-31T05:23:41.351Z,99168.14
2023-03-31T05:26:10.962Z,99167.06
2023-03-31T05:28:39.532Z,99165.45
2023-03-31T05:31:08.760Z,99162.02
2023-03-31T05:33:41.861Z,99163.75
2023-03-31T05:36:12.739Z,99158.44
2023-03-31T05:38:41.393Z,99157.95
2023-03-31T05:41:11.383Z,99152.19
2023-03-31T05:43:39.888Z,99152.67
2023-03-31T05:46:08.581Z,99150.13
2023-03-31T05:48:38.084Z,99152.65
2023-03-31T05:51:06.152Z,99150.69
2023-03-31T05:53:34.247Z,99145.23
2023-03-31T05:56:06.197Z,99143.84
2023-03-31T05:58:36.374Z,99146.73
2023-03-31T06:01:09.559Z,99148.30
2023-03-31T06:03:41.509Z,99145.21
2023-03-31T06:06:10.663Z,99140.13
2023-03-31T06:08:39.149Z,99138.36
2023-03-31T06:11:09.517Z,99133.58
2023-03-31T06:13:39.204Z,99130.25
2023-03-31T06:16:08.213Z,99131.96
2023-03-31T06:18:37.045Z,99128.98
2023-03-31T06:21:05.845Z,99125.77
2023-03-31T06:28:22.974Z,99124.80
2023-03-31T06:30:50.974Z,99131.57
2023-03-31T06:33:18.898Z,99135.54
2023-03-31T06:35:46.905Z,99133.73
2023-03-31T06:38:14.819Z,99127.58
2023-03-31T06:40:42.703Z,99130.70
2023-03-31T06:43:10.620Z,99129.51
2023-03-31T06:45:38.583Z,99128.13
2023-03-31T06:48:06.931Z,99126.17
2023-03-31T06:50:37.976Z,99126.50
2023-03-31T06:53:05.926Z,99126.45
2023-03-31T06:55:34.057Z,99123.70
2023-03-31T06:58:02.110Z,99129.05
2023-03-31T07:00:30.650Z,99131.21
2023-03-31T07:02:59.342Z,99129.73
2023-03-31T07:05:29.067Z,99128.12
2023-03-31T07:07:59.119Z,99125.21
2023-03-31T07:10:30.433Z,99125.91
2023-03-31T07:12:58.496Z,99131.11
2023-03-31T07:15:28.323Z,99127.39
2023-03-31T07:18:02.473Z,99124.36
2023-03-31T07:20:30.723Z,99125.78
2023-03-31T07:22:58.766Z,99129.54
2023-03-31T07:25:26.704Z,99130.23
2023-03-31T07:27:54.579Z,99123.77
2023-03-31T07:30:23.131Z,99116.67
2023-03-31T07:32:52.273Z,99116.27
2023-03-31T07:35:20.815Z,99112.88
2023-03-31T07:37:50.288Z,99112.27
2023-03-31T07:40:24.503Z,99117.58
2023-03-31T07:42:53.420Z,99108.31
2023-03-31T07:45:23.209Z,99107.38
2023-03-31T07:47:51.911Z,99105.94
2023-03-31T07:50:20.992Z,99108.44
2023-03-31T07:52:50.766Z,99107.52
2023-03-31T07:55:20.051Z,99110.20
2023-03-31T07:57:48.139Z,99110.29
2023-03-31T08:00:16.711Z,99111.09
2023-03-31T08:02:44.931Z,99110.01
2023-03-31T08:05:17.821Z,99106.75
2023-03-31T08:07:47.957Z,99105.67
2023-03-31T08:10:20.152Z,99105.58
2023-03-31T08:12:48.308Z,99105.36
2023-03-31T08:15:16.562Z,99097.64
2023-03-31T08:17:45.461Z,99095.02
2023-03-31T08:20:13.642Z,99096.84
2023-03-31T08:22:41.822Z,99098.35
2023-03-31T08:25:10.237Z,99094.10
2023-03-31T08:27:40.705Z,99094.19
2023-03-31T08:30:11.553Z,99087.73
2023-03-31T08:32:39.588Z,99084.94
2023-03-31T08:35:08.656Z,99088.38
2023-03-31T08:37:37.889Z,99084.60
2023-03-31T08:40:09.683Z,99081.98
2023-03-31T08:42:47.656Z,99076.96
2023-03-31T08:45:25.923Z,99072.71
2023-03-31T08:47:58.800Z,99072.81
2023-03-31T08:50:33.852Z,99066.38
2023-03-31T08:53:06.614Z,99061.52
2023-03-31T08:55:41.949Z,99058.02
2023-03-31T09:07:29.389Z,99047.59
2023-03-31T09:10:24.490Z,99044.87
2023-03-31T09:13:23.831Z,99046.78
2023-03-31T09:16:15.569Z,99047.02
2023-03-31T09:18:47.265Z,99046.89
2023-03-31T09:21:39.026Z,99043.91
2023-03-31T09:24:16.313Z,99042.09
2023-03-31T09:26:49.043Z,99042.08
2023-03-31T09:29:45.233Z,99047.50
2023-03-31T09:32:26.335Z,99046.11
2023-03-31T09:35:01.796Z,99042.50
2023-03-31T09:37:33.460Z,99041.11
2023-03-31T09:40:07.746Z,99038.33
2023-03-31T09:42:36.774Z,99043.26
2023-03-31T09:45:05.886Z,99038.80
2023-03-31T09:47:42.593Z,99037.44
2023-03-31T09:50:12.103Z,99033.95
2023-03-31T09:52:49.163Z,99032.14
2023-03-31T09:55:40.229Z,99029.72
2023-03-31T09:58:14.114Z,99021.24
2023-03-31T10:00:43.856Z,99024.41
2023-03-31T10:03:14.116Z,99022.45
2023-03-31T10:05:55.118Z,99021.46
2023-03-31T10:08:27.693Z,99012.17
2023-03-31T10:10:57.387Z,99006.42
2023-03-31T10:13:29.501Z,99001.22
2023-03-31T10:16:13.207Z,98993.63
2023-03-31T10:18:46.154Z,98988.89
2023-03-31T10:21:25.142Z,98982.66
2023-03-31T10:23:57.213Z,98979.79
2023-03-31T10:26:29.564Z,98978.30
2023-03-31T10:29:01.220Z,98969.93
2023-03-31T10:31:38.212Z,98968.08
2023-03-31T10:34:19.190Z,98967.55
2023-03-31T10:36:53.183Z,98962.27
2023-03-31T10:39:31.183Z,98964.17
2023-03-31T10:42:02.188Z,98962.79
2023-03-31T10:44:38.203Z,98956.52
2023-03-31T10:47:36.285Z,98953.73
2023-03-31T10:50:16.168Z,98951.03
2023-03-31T10:52:49.662Z,98949.68
2023-03-31T10:55:29.256Z,98945.64
2023-03-31T10:58:17.192Z,98940.48
2023-03-31T11:01:26.182Z,98939.73
2023-03-31T11:04:45.244Z,98940.52
2023-03-31T11:07:44.241Z,98932.96
2023-03-31T11:11:00.266Z,98931.80
2023-03-31T11:14:10.254Z,98930.91
2023-03-31T11:24:52.217Z,98924.02
2023-03-31T11:27:37.283Z,98918.56
2023-03-31T11:30:27.162Z,98908.95
2023-03-31T11:33:06.450Z,98911.54
2023-03-31T11:35:43.985Z,98912.70
2023-03-31T11:38:30.494Z,98911.98
2023-03-31T11:41:13.934Z,98905.14
2023-03-31T11:44:03.733Z,98895.23
2023-03-31T11:46:53.365Z,98893.23
2023-03-31T11:50:14.307Z,98890.69
2023-03-31T11:53:00.185Z,98887.89
2023-03-31T11:55:31.900Z,98884.33
2023-03-31T11:58:03.007Z,98879.39
2023-03-31T12:00:58.295Z,98874.70
2023-03-31T12:04:08.310Z,98872.41
2023-03-31T12:06:42.631Z,98870.30
2023-03-31T12:09:27.636Z,98863.73
2023-03-31T12:12:14.988Z,98862.99
2023-03-31T12:14:50.315Z,98859.14
2023-03-31T12:17:38.700Z,98855.07
2023-03-31T12:20:18.028Z,98849.67
2023-03-31T12:22:48.865Z,98845.27
2023-03-31T12:25:27.168Z,98842.22
2023-03-31T12:27:56.740Z,98831.15
2023-03-31T12:30:42.374Z,98832.86
2023-03-31T12:33:27.352Z,98832.04
2023-03-31T12:36:08.984Z,98831.67
2023-03-31T12:39:01.825Z,98831.81
2023-03-31T12:41:45.002Z,98825.95
2023-03-31T12:44:25.928Z,98828.40
2023-03-31T12:47:08.595Z,98824.52
2023-03-31T12:50:03.663Z,98824.42
2023-03-31T12:53:19.545Z,98819.67
2023-03-31T12:55:52.186Z,98820.15
2023-03-31T12:58:23.399Z,98821.08
2023-03-31T13:01:07.236Z,98814.88
2023-03-31T13:03:37.211Z,98806.97
2023-03-31T13:06:06.308Z,98800.16
2023-03-31T13:08:54.153Z,98798.44
2023-03-31T13:11:38.736Z,98799.28
2023-03-31T13:14:13.015Z,98794.81
2023-03-31T13:16:41.419Z,98791.20
2023-03-31T13:19:27.714Z,98790.56
2023-03-31T13:22:01.414Z,98789.44
2023-03-31T13:24:31.627Z,98788.74
2023-03-31T13:27:33.378Z,98787.59
2023-03-31T13:30:01.891Z,98778.29
2023-03-31T13:32:29.977Z,98776.70
2023-03-31T13:35:18.900Z,98776.89
2023-03-31T13:38:23.631Z,98771.70
2023-03-31T13:41:22.004Z,98769.71
2023-03-31T13:44:02.199Z,98764.56
2023-03-31T13:46:54.237Z,98761.49
2023-03-31T13:49:46.936Z,98759.20
2023-03-31T13:52:36.044Z,98750.41
2023-03-31T13:55:43.013Z,98747.35
2023-03-31T13:58:42.191Z,98744.53
2023-03-31T14:01:36.746Z,98737.64
2023-03-31T14:04:23.283Z,98733.29
2023-03-31T14:06:58.776Z,98730.46
2023-03-31T14:09:29.871Z,98718.27
2023-03-31T14:12:19.294Z,98714.64
2023-03-31T14:14:49.162Z,98715.95
2023-03-31T14:17:17.228Z,98719.69
2023-03-31T14:20:23.182Z,98715.17
2023-03-31T14:22:57.302Z,98716.84
2023-03-31T14:25:44.815Z,98716.26
2023-03-31T14:36:02.407Z,98709.05
2023-03-31T14:38:32.266Z,98713.15
2023-03-31T14:41:03.984Z,98708.09
2023-03-31T14:43:40.647Z,98704.29
2023-03-31T14:46:10.409Z,98701.36
2023-03-31T14:48:46.025Z,98696.85
2023-03-31T14:51:20.277Z,98697.64
2023-03-31T14:53:48.152Z,98691.92
2023-03-31T14:56:26.214Z,98690.35
2023-03-31T14:58:54.923Z,98686.20
2023-03-31T15:01:35.920Z,98681.69
2023-03-31T15:04:13.960Z,98683.61
2023-03-31T15:06:45.188Z,98680.87
2023-03-31T15:09:27.414Z,98678.44
2023-03-31T15:12:01.770Z,98684.85
2023-03-31T15:14:34.498Z,98709.39
2023-03-31T15:17:03.212Z,98716.98
2023-03-31T15:19:35.840Z,98723.20
2023-03-31T15:22:19.344Z,98726.01
2023-03-31T15:24:47.689Z,98743.27
2023-03-31T15:27:49.382Z,98747.80
2023-03-31T15:30:27.504Z,98748.39
2023-03-31T15:33:01.500Z,98737.00
2023-03-31T15:35:41.031Z,98738.19
2023-03-31T15:38:12.036Z,98731.77
2023-03-31T15:40:43.102Z,98716.30
2023-03-31T15:43:39.001Z,98714.78
2023-03-31T15:46:26.368Z,98709.41
2023-03-31T15:48:56.566Z,98702.73
2023-03-31T15:51:31.282Z,98690.67
2023-03-31T15:53:59.765Z,98685.77
2023-03-31T15:56:33.722Z,98679.34
2023-03-31T15:59:05.988Z,98674.29
2023-03-31T16:01:39.983Z,98669.38
2023-03-31T16:04:12.327Z,98665.63
2023-03-31T16:06:43.762Z,98663.80
2023-03-31T16:09:24.125Z,98660.46
2023-03-31T16:11:58.856Z,98659.64
2023-03-31T16:14:33.247Z,98654.41
2023-03-31T16:17:09.358Z,98648.13
2023-03-31T16:19:49.383Z,98651.05
2023-03-31T16:22:24.926Z,98645.63
2023-03-31T16:24:53.122Z,98638.40
2023-03-31T16:27:22.821Z,98634.70
2023-03-31T16:29:50.991Z,98628.84
2023-03-31T16:32:20.906Z,98627.77
2023-03-31T16:34:57.526Z,98624.08
2023-03-31T16:37:26.066Z,98617.85
2023-03-31T16:39:54.561Z,98618.59
2023-03-31T16:42:23.875Z,98612.42
2023-03-31T16:45:09.734Z,98609.56
2023-03-31T16:47:41.521Z,98609.07
2023-03-31T16:50:11.831Z,98608.35
2023-03-31T16:52:39.868Z,98606.30
2023-03-31T16:55:08.704Z,98605.80
2023-03-31T16:57:36.751Z,98600.80
2023-03-31T17:00:05.820Z,98590.24
2023-03-31T17:02:33.973Z,98587.80
2023-03-31T17:05:12.713Z,98588.75
2023-03-31T17:07:42.636Z,98582.70
2023-03-31T17:10:11.663Z,98585.73
2023-03-31T17:12:39.794Z,98584.36
2023-03-31T17:15:08.798Z,98584.25
2023-03-31T17:17:37.162Z,98581.57
2023-03-31T17:20:06.974Z,98578.57
2023-03-31T17:22:35.815Z,98582.86
2023-03-31T17:25:05.070Z,98589.79
2023-03-31T17:27:33.974Z,98604.01
2023-03-31T17:30:02.491Z,98620.53
2023-03-31T17:32:31.555Z,98623.39
2023-03-31T17:34:59.913Z,98622.54
2023-03-31T17:37:28.022Z,98624.05
2023-03-31T17:39:56.392Z,98625.66
2023-03-31T17:42:25.600Z,98628.30
2023-03-31T17:44:53.933Z,98628.91
2023-03-31T17:47:22.012Z,98621.31
2023-03-31T17:49:50.080Z,98616.00
2023-03-31T17:52:18.050Z,98619.59
2023-03-31T17:54:47.461Z,98618.48
2023-03-31T17:57:17.469Z,98613.17
2023-03-31T17:59:47.074Z,98615.61
2023-03-31T18:02:15.615Z,98612.85
2023-03-31T18:04:44.187Z,98615.98
2023-03-31T18:07:13.079Z,98615.26
2023-03-31T18:09:41.094Z,98614.45
2023-03-31T18:12:09.908Z,98610.55
2023-03-31T18:14:38.489Z,98609.26
2023-03-31T18:17:07.050Z,98605.76
2023-03-31T18:19:34.935Z,98601.17
2023-03-31T18:22:03.294Z,98599.48
2023-03-31T18:24:32.696Z,98590.05
2023-03-31T18:27:00.875Z,98587.87
2023-03-31T18:29:29.145Z,98591.73
2023-03-31T18:31:57.372Z,98590.98
2023-03-31T18:34:25.724Z,98588.01
2023-03-31T18:36:54.430Z,98588.96
2023-03-31T18:39:22.553Z,98586.37
2023-03-31T18:41:51.665Z,98585.11
2023-03-31T18:44:21.988Z,98585.56
2023-03-31T18:46:50.053Z,98579.77
2023-03-31T18:49:20.203Z,98577.19
2023-03-31T18:51:48.154Z,98572.07
2023-03-31T18:54:17.112Z,98575.28
2023-03-31T18:56:45.224Z,98573.52
2023-03-31T18:59:13.475Z,98572.94
2023-03-31T19:01:41.671Z,98571.34
2023-03-31T19:04:10.742Z,98565.36
2023-03-31T19:06:38.928Z,98563.73
2023-03-31T19:09:07.360Z,98563.52
2023-03-31T19:11:37.941Z,98557.45
2023-03-31T19:14:06.002Z,98552.11
2023-03-31T19:16:41.863Z,98548.81
2023-03-31T19:19:10.946Z,98547.94
2023-03-31T19:21:39.442Z,98541.20
2023-03-31T19:24:07.505Z,98537.09
2023-03-31T19:26:36.387Z,98537.12
2023-03-31T19:29:05.698Z,98534.11
2023-03-31T19:31:38.538Z,98527.97
2023-03-31T19:34:08.672Z,98527.27
2023-03-31T19:36:37.032Z,98520.52
2023-03-31T19:39:06.804Z,98516.80
2023-03-31T19:41:36.597Z,98513.17
2023-03-31T19:44:04.709Z,98504.21
2023-03-31T19:46:33.120Z,98492.41
2023-03-31T19:49:01.629Z,98486.88
2023-03-31T19:51:29.709Z,98481.00
2023-03-31T19:53:57.775Z,98479.27
2023-03-31T19:56:27.278Z,98485.86
2023-03-31T19:58:55.734Z,98490.36
2023-03-31T20:01:31.878Z,98491.27
2023-03-31T20:04:00.280Z,98492.99
2023-03-31T20:06:30.892Z,98488.34
2023-03-31T20:09:01.151Z,98484.64
2023-03-31T20:11:31.219Z,98481.48
2023-03-31T20:13:59.755Z,98482.77
2023-03-31T20:16:29.965Z,98486.88
2023-03-31T20:19:01.608Z,98488.47
2023-03-31T20:21:31.562Z,98484.09
2023-03-31T20:24:00.982Z,98485.17
2023-03-31T20:26:33.023Z,98487.08
2023-03-31T20:29:03.017Z,98479.40
2023-03-31T20:31:36.620Z,98478.29
2023-03-31T20:34:12.182Z,98474.02
2023-03-31T20:36:42.270Z,98475.00
2023-03-31T20:39:13.016Z,98472.95
2023-03-31T20:41:41.465Z,98468.77
2023-03-31T20:44:14.302Z,98463.00
2023-03-31T20:46:44.932Z,98465.52
2023-03-31T20:49:13.493Z,98463.27
2023-03-31T20:51:42.891Z,98459.94
2023-03-31T20:54:12.215Z,98461.02
2023-03-31T20:56:41.729Z,98459.17
2023-03-31T20:59:15.186Z,98455.96
2023-03-31T21:01:45.366Z,98458.77
2023-03-31T21:04:14.206Z,98462.19
2023-03-31T21:06:45.683Z,98458.52
2023-03-31T21:09:16.726Z,98459.70
2023-03-31T21:11:45.084Z,98454.09
2023-03-31T21:14:15.911Z,98450.96
2023-03-31T21:16:45.036Z,98450.42
2023-03-31T21:19:13.388Z,98445.59
2023-03-31T21:21:42.011Z,98447.33
2023-03-31T21:24:12.650Z,98446.05
2023-03-31T21:26:40.995Z,98444.23
2023-03-31T21:29:09.473Z,98440.97
2023-03-31T21:31:37.786Z,98440.46
2023-03-31T21:34:06.549Z,98438.89
2023-03-31T21:36:35.114Z,98439.40
2023-03-31T21:39:03.526Z,98440.63
2023-03-31T21:41:32.625Z,98442.04
2023-03-31T21:44:02.781Z,98442.94
2023-03-31T21:46:33.395Z,98436.94
2023-03-31T21:49:03.065Z,98435.89
2023-03-31T21:51:31.435Z,98434.20
2023-03-31T21:53:59.509Z,98433.66
2023-03-31T21:56:31.705Z,98432.15
2023-03-31T21:59:01.447Z,98433.69
2023-03-31T22:01:30.166Z,98430.47
2023-03-31T22:03:59.188Z,98419.29
2023-03-31T22:06:27.333Z,98417.65
2023-03-31T22:08:55.759Z,98417.15
2023-03-31T22:11:23.798Z,98413.67
2023-03-31T22:13:51.968Z,98414.82
2023-03-31T22:16:22.631Z,98418.29
2023-03-31T22:18:52.794Z,98418.69
2023-03-31T22:21:23.804Z,98420.22
2023-03-31T22:24:00.161Z,98419.44
2023-03-31T22:26:31.681Z,98417.58
2023-03-31T22:29:02.291Z,98413.37
2023-03-31T22:31:31.102Z,98414.17
2023-03-31T22:33:59.457Z,98415.36
2023-03-31T22:36:27.663Z,98412.63
2023-03-31T22:38:58.359Z,98410.83
2023-03-31T22:41:27.702Z,98415.59
2023-03-31T22:43:55.758Z,98411.54
2023-03-31T22:46:26.181Z,98413.86
2023-03-31T22:48:54.243Z,98413.73
2023-03-31T22:51:22.406Z,98407.58
2023-03-31T22:53:52.521Z,98401.73
2023-03-31T22:56:21.712Z,98403.26
2023-03-31T22:58:51.556Z,98400.48
2023-03-31T23:01:21.761Z,98400.73
2023-03-31T23:03:50.654Z,98399.52
2023-03-31T23:06:19.254Z,98399.08
2023-03-31T23:08:48.788Z,98397.29
2023-03-31T23:11:18.892Z,98392.50
2023-03-31T23:13:48.003Z,98390.63
2023-03-31T23:16:24.281Z,98390.02
2023-03-31T23:18:54.884Z,98389.00
2023-03-31T23:21:26.286Z,98389.52
2023-03-31T23:23:57.426Z,98391.42
2023-03-31T23:26:26.560Z,98392.15
2023-03-31T23:28:55.927Z,98390.44
2023-03-31T23:31:27.689Z,98386.39
2023-03-31T23:33:57.804Z,98387.50
2023-03-31T23:36:27.228Z,98384.73
2023-03-31T23:38:56.543Z,98382.66
2023-03-31T23:41:26.570Z,98388.14
2023-03-31T23:43:56.048Z,98385.31
2023-03-31T23:46:26.109Z,98387.25
2023-03-31T23:48:54.835Z,98387.27
2023-03-31T23:51:23.611Z,98386.14
2023-03-31T23:53:52.416Z,98378.73
2023-03-31T23:56:20.698Z,98384.00
2023-03-31T23:58:48.852Z,98375.42
